Time;durP1;ratioP1;P1;durP2;ratioP2;P2;SDS_P1;SDS_P2;PMS_P1;PMS_P2;Temp;Humidity;BMP_temperature;BMP_pressure;BME280_temperature;BME280_humidity;BME280_pressure;Samples;Min_cycle;Max_cycle;Signal;HPM_P1;HPM_P2
2024/01/14 00:00:37;;;;;;;10.35;6.28;;;;;;;-146.82;100.00;71671.09;5027475;28;20065;-84
2024/01/14 00:03:04;;;;;;;10.60;6.57;;;;;;;-146.82;100.00;71671.09;5019801;28;20032;-82
2024/01/14 00:05:29;;;;;;;11.73;7.10;;;;;;;-146.82;100.00;71671.09;5016340;28;20022;-85
2024/01/14 00:07:55;;;;;;;8.88;5.90;;;;;;;-146.82;100.00;71671.09;5016340;28;20049;-83
2024/01/14 00:10:22;;;;;;;11.55;6.45;;;;;;;-146.82;100.00;71671.09;5016422;28;20537;-84
2024/01/14 00:12:47;;;;;;;11.05;6.53;;;;;;;-146.82;100.00;71671.09;5015921;28;20030;-83
2024/01/14 00:15:12;;;;;;;11.73;7.07;;;;;;;-146.82;100.00;71671.09;5013318;28;20033;-83
2024/01/14 00:17:38;;;;;;;10.27;6.30;;;;;;;-146.82;100.00;71671.09;4996776;28;20034;-83
2024/01/14 00:20:04;;;;;;;11.45;6.65;;;;;;;-146.82;100.00;71671.09;5014115;28;20653;-79
2024/01/14 00:22:30;;;;;;;8.25;6.28;;;;;;;-146.82;100.00;71671.09;5016173;28;20026;-82
2024/01/14 00:24:55;;;;;;;9.85;6.18;;;;;;;-146.82;100.00;71671.09;5019322;28;20037;-81
2024/01/14 00:27:21;;;;;;;10.02;6.70;;;;;;;-146.82;100.00;71671.09;5021696;28;20440;-85
2024/01/14 00:29:46;;;;;;;10.68;6.95;;;;;;;-146.82;100.00;71671.09;5021086;28;20037;-84
2024/01/14 00:32:11;;;;;;;11.68;7.13;;;;;;;-146.82;100.00;71671.09;5018748;28;20130;-83
2024/01/14 00:34:40;;;;;;;10.45;6.72;;;;;;;-146.82;100.00;71671.09;5014204;28;20034;-82
2024/01/14 00:37:06;;;;;;;9.02;5.82;;;;;;;-146.82;100.00;71671.09;5014575;28;20126;-83
2024/01/14 00:39:31;;;;;;;9.27;5.90;;;;;;;-146.82;100.00;71671.09;5014502;28;20049;-83
2024/01/14 00:41:56;;;;;;;8.98;5.43;;;;;;;-146.82;100.00;71671.09;5019199;28;20033;-82
2024/01/14 00:44:22;;;;;;;8.32;6.18;;;;;;;-146.82;100.00;71671.09;5018510;28;20062;-81
2024/01/14 00:46:47;;;;;;;8.05;5.03;;;;;;;-146.82;100.00;71671.09;5014799;28;20106;-80
2024/01/14 00:49:13;;;;;;;12.43;5.97;;;;;;;-146.82;100.00;71671.09;5016006;28;20037;-83
2024/01/14 00:51:38;;;;;;;10.32;5.90;;;;;;;-146.82;100.00;71671.09;5017078;28;20037;-84
2024/01/14 00:54:04;;;;;;;9.05;6.03;;;;;;;-146.82;100.00;71671.09;5016109;28;20026;-82
2024/01/14 00:56:29;;;;;;;10.52;5.65;;;;;;;-146.82;100.00;71671.09;5014583;28;20030;-83
2024/01/14 00:58:55;;;;;;;12.13;6.15;;;;;;;-146.82;100.00;71671.09;5015472;28;20030;-83
2024/01/14 01:01:20;;;;;;;8.75;5.75;;;;;;;-146.82;100.00;71671.09;5014286;28;20109;-83
2024/01/14 01:03:46;;;;;;;7.95;5.93;;;;;;;-146.82;100.00;71671.09;5015983;28;20029;-81
2024/01/14 01:06:11;;;;;;;9.40;5.45;;;;;;;-146.82;100.00;71671.09;4998121;28;20022;-83
2024/01/14 01:08:37;;;;;;;11.43;5.95;;;;;;;-146.82;100.00;71671.09;5015765;28;20172;-84
2024/01/14 01:11:02;;;;;;;10.65;6.50;;;;;;;-146.82;100.00;71671.09;4998232;28;20491;-83
2024/01/14 01:13:28;;;;;;;10.43;6.72;;;;;;;-146.82;100.00;71671.09;5015078;28;20418;-85
2024/01/14 01:15:53;;;;;;;12.38;6.40;;;;;;;-146.82;100.00;71671.09;5014131;28;20036;-84
2024/01/14 01:18:19;;;;;;;9.13;6.07;;;;;;;-146.82;100.00;71671.09;5015511;28;20418;-84
2024/01/14 01:20:45;;;;;;;8.70;5.72;;;;;;;-146.82;100.00;71671.09;5015777;28;20463;-83
2024/01/14 01:23:10;;;;;;;9.20;5.28;;;;;;;-146.82;100.00;71671.09;5015194;28;20017;-84
2024/01/14 01:25:36;;;;;;;11.15;6.65;;;;;;;-146.82;100.00;71671.09;5015745;28;20037;-84
2024/01/14 01:28:02;;;;;;;8.90;5.78;;;;;;;-146.82;100.00;71671.09;5016095;28;20061;-84
2024/01/14 01:30:27;;;;;;;8.80;5.60;;;;;;;-146.82;100.00;71671.09;5016209;28;20064;-83
2024/01/14 01:32:53;;;;;;;12.10;6.35;;;;;;;-146.82;100.00;71671.09;5014964;28;20394;-83
2024/01/14 01:35:19;;;;;;;8.75;5.82;;;;;;;-146.82;100.00;71671.09;5014572;28;20037;-83
2024/01/14 01:37:44;;;;;;;10.98;7.00;;;;;;;-146.82;100.00;71671.09;5014334;28;20052;-83
2024/01/14 01:40:11;;;;;;;10.52;5.63;;;;;;;-146.82;100.00;71671.09;5025216;28;20028;-85
2024/01/14 01:42:37;;;;;;;8.20;4.93;;;;;;;-146.82;100.00;71671.09;5027392;28;20036;-85
2024/01/14 01:45:02;;;;;;;9.57;6.00;;;;;;;-146.82;100.00;71671.09;5024551;28;20049;-83
2024/01/14 01:47:28;;;;;;;7.93;5.70;;;;;;;-146.82;100.00;71671.09;5017275;28;20083;-82
2024/01/14 01:49:54;;;;;;;9.15;5.45;;;;;;;-146.82;100.00;71671.09;5022205;28;20364;-80
2024/01/14 01:52:20;;;;;;;8.52;5.25;;;;;;;-146.82;100.00;71671.09;5030479;28;20038;-84
2024/01/14 01:54:47;;;;;;;9.23;5.03;;;;;;;-146.82;100.00;71671.09;5029571;28;20036;-84
2024/01/14 01:57:13;;;;;;;9.18;5.28;;;;;;;-146.82;100.00;71671.09;5018805;28;20064;-83
2024/01/14 01:59:39;;;;;;;9.93;6.30;;;;;;;-146.82;100.00;71671.09;5014203;28;20026;-83
2024/01/14 02:02:05;;;;;;;9.50;5.57;;;;;;;-146.82;100.00;71671.09;4996729;28;20025;-84
2024/01/14 02:04:31;;;;;;;7.95;5.13;;;;;;;-146.82;100.00;71671.09;5013918;28;20353;-83
2024/01/14 02:06:58;;;;;;;11.02;5.43;;;;;;;-146.82;100.00;71671.09;5010530;28;20072;-82
2024/01/14 02:09:23;;;;;;;7.97;6.07;;;;;;;-146.82;100.00;71671.09;5010415;28;20040;-84
2024/01/14 02:11:49;;;;;;;7.57;4.90;;;;;;;-146.82;100.00;71671.09;5011807;28;20109;-83
2024/01/14 02:14:14;;;;;;;6.88;4.80;;;;;;;-146.82;100.00;71671.09;5011264;28;20071;-83
2024/01/14 02:16:40;;;;;;;8.77;5.13;;;;;;;-146.82;100.00;71671.09;5012354;28;20033;-81
2024/01/14 02:19:05;;;;;;;8.85;4.53;;;;;;;-146.82;100.00;71671.09;5011600;28;20329;-81
2024/01/14 02:21:39;;;;;;;10.10;5.55;;;;;;;-146.82;100.00;71671.09;5012980;28;20033;-82
2024/01/14 02:24:14;;;;;;;9.52;5.35;;;;;;;-146.82;100.00;71671.09;5013954;28;20083;-83
2024/01/14 02:26:39;;;;;;;9.68;6.13;;;;;;;-146.82;100.00;71671.09;5013501;28;20076;-84
2024/01/14 02:29:07;;;;;;;11.38;6.63;;;;;;;-146.82;100.00;71671.09;5012204;28;20022;-83
2024/01/14 02:31:32;;;;;;;10.93;6.45;;;;;;;-146.82;100.00;71671.09;5012062;28;20022;-82
2024/01/14 02:33:58;;;;;;;10.07;5.97;;;;;;;-146.82;100.00;71671.09;5011823;28;20025;-84
2024/01/14 02:36:24;;;;;;;11.43;5.50;;;;;;;-146.82;100.00;71671.09;5011660;28;20117;-83
2024/01/14 02:38:49;;;;;;;9.73;5.57;;;;;;;-146.82;100.00;71671.09;5026131;28;20036;-81
2024/01/14 02:41:14;;;;;;;10.57;5.55;;;;;;;-146.82;100.00;71671.09;5021405;28;20092;-82
2024/01/14 02:43:40;;;;;;;9.18;5.43;;;;;;;-146.82;100.00;71671.09;5020030;28;20025;-82
2024/01/14 02:46:05;;;;;;;12.85;5.90;;;;;;;-146.82;100.00;71671.09;5022350;28;20033;-83
2024/01/14 02:48:31;;;;;;;11.27;5.70;;;;;;;-146.82;100.00;71671.09;5024759;28;20041;-83
2024/01/14 02:50:56;;;;;;;10.90;5.50;;;;;;;-146.82;100.00;71671.09;5025256;28;20022;-83
2024/01/14 02:53:22;;;;;;;9.45;5.53;;;;;;;-146.82;100.00;71671.09;5023715;28;20018;-82
2024/01/14 02:55:47;;;;;;;13.18;6.35;;;;;;;-146.82;100.00;71671.09;5022248;28;20491;-85
2024/01/14 02:58:12;;;;;;;11.00;4.85;;;;;;;-146.82;100.00;71671.09;5018672;28;20384;-85
2024/01/14 03:00:38;;;;;;;13.35;5.20;;;;;;;-146.82;100.00;71671.09;5016130;28;20048;-83
2024/01/14 03:03:03;;;;;;;9.68;5.20;;;;;;;-146.82;100.00;71671.09;5017268;28;20422;-83
2024/01/14 03:05:29;;;;;;;11.95;5.25;;;;;;;-146.82;100.00;71671.09;5015543;28;20034;-82
2024/01/14 03:07:54;;;;;;;14.15;6.55;;;;;;;-146.82;100.00;71671.09;5015400;28;20494;-83
2024/01/14 03:10:20;;;;;;;9.63;5.03;;;;;;;-146.82;100.00;71671.09;5014232;28;20026;-84
2024/01/14 03:12:45;;;;;;;12.43;5.90;;;;;;;-146.82;100.00;71671.09;4998090;28;20018;-84
2024/01/14 03:15:11;;;;;;;13.93;5.22;;;;;;;-146.82;100.00;71671.09;5017508;28;20518;-84
2024/01/14 03:17:36;;;;;;;10.70;5.63;;;;;;;-146.82;100.00;71671.09;5015089;28;20072;-83
2024/01/14 03:20:02;;;;;;;8.88;5.10;;;;;;;-146.82;100.00;71671.09;5015631;28;20371;-83
2024/01/14 03:22:27;;;;;;;10.38;5.22;;;;;;;-146.82;100.00;71671.09;5013290;28;20022;-81
2024/01/14 03:24:53;;;;;;;9.80;5.25;;;;;;;-146.82;100.00;71671.09;5015219;28;20022;-83
2024/01/14 03:27:18;;;;;;;10.35;5.15;;;;;;;-146.82;100.00;71671.09;5015129;28;20464;-84
2024/01/14 03:29:43;;;;;;;9.70;5.32;;;;;;;-146.82;100.00;71671.09;5018524;28;20033;-83
2024/01/14 03:32:09;;;;;;;8.38;4.93;;;;;;;-146.82;100.00;71671.09;5021182;28;20034;-84
2024/01/14 03:34:36;;;;;;;8.32;4.80;;;;;;;-146.82;100.00;71671.09;5020200;28;20037;-84
2024/01/14 03:37:02;;;;;;;9.45;5.05;;;;;;;-146.82;100.00;71671.09;5020044;28;20045;-83
2024/01/14 03:39:27;;;;;;;8.88;4.80;;;;;;;-146.82;100.00;71671.09;5020471;28;20081;-84
2024/01/14 03:41:53;;;;;;;7.30;4.07;;;;;;;-146.82;100.00;71671.09;5019943;28;20453;-83
2024/01/14 03:44:18;;;;;;;9.13;3.95;;;;;;;-146.82;100.00;71671.09;5020419;28;20526;-82
2024/01/14 03:46:44;;;;;;;6.25;3.38;;;;;;;-146.82;100.00;71671.09;5019995;28;20026;-82
2024/01/14 03:49:10;;;;;;;10.27;4.82;;;;;;;-146.82;100.00;71671.09;5021343;28;20494;-83
2024/01/14 03:51:35;;;;;;;7.03;4.63;;;;;;;-146.82;100.00;71671.09;5021453;28;20418;-82
2024/01/14 03:54:00;;;;;;;5.07;3.58;;;;;;;-146.82;100.00;71671.09;5019805;28;20463;-84
2024/01/14 03:56:26;;;;;;;6.50;3.85;;;;;;;-146.82;100.00;71671.09;5021551;28;20032;-83
2024/01/14 03:58:51;;;;;;;8.13;3.55;;;;;;;-146.82;100.00;71671.09;5020666;28;20479;-82
2024/01/14 04:01:17;;;;;;;7.40;3.90;;;;;;;-146.82;100.00;71671.09;5020582;28;20529;-82
2024/01/14 04:03:43;;;;;;;4.82;3.13;;;;;;;-146.82;100.00;71671.09;5019934;28;20026;-83
2024/01/14 04:06:08;;;;;;;5.40;4.22;;;;;;;-146.82;100.00;71671.09;5018715;28;20482;-83
2024/01/14 04:08:34;;;;;;;6.00;3.15;;;;;;;-146.82;100.00;71671.09;5017716;28;20029;-82
2024/01/14 04:10:59;;;;;;;4.80;3.55;;;;;;;-146.82;100.00;71671.09;5017440;28;20456;-83
2024/01/14 04:13:25;;;;;;;5.47;3.63;;;;;;;-146.82;100.00;71671.09;5017717;28;20021;-81
2024/01/14 04:15:50;;;;;;;5.32;3.65;;;;;;;-146.82;100.00;71671.09;5019238;28;20030;-83
2024/01/14 04:18:15;;;;;;;5.43;3.65;;;;;;;-146.82;100.00;71671.09;5018129;28;20026;-84
2024/01/14 04:20:41;;;;;;;5.03;3.75;;;;;;;-146.82;100.00;71671.09;5017966;28;20053;-82
2024/01/14 04:23:06;;;;;;;5.25;3.42;;;;;;;-146.82;100.00;71671.09;5017920;28;20100;-83
2024/01/14 04:25:32;;;;;;;4.78;3.45;;;;;;;-146.82;100.00;71671.09;5018015;28;20056;-84
2024/01/14 04:27:57;;;;;;;5.57;3.50;;;;;;;-146.82;100.00;71671.09;5018735;28;20033;-82
2024/01/14 04:30:23;;;;;;;6.85;3.92;;;;;;;-146.82;100.00;71671.09;5018106;28;20379;-83
2024/01/14 04:32:48;;;;;;;5.10;3.55;;;;;;;-146.82;100.00;71671.09;5017594;28;20025;-82
2024/01/14 04:35:14;;;;;;;5.00;3.30;;;;;;;-146.82;100.00;71671.09;5017458;28;20021;-82
2024/01/14 04:37:39;;;;;;;5.22;3.75;;;;;;;-146.82;100.00;71671.09;5016863;28;20382;-83
2024/01/14 04:40:05;;;;;;;6.00;4.00;;;;;;;-146.82;100.00;71671.09;5015969;28;20021;-83
2024/01/14 04:42:30;;;;;;;5.65;3.45;;;;;;;-146.82;100.00;71671.09;5016932;28;20562;-82
2024/01/14 04:44:56;;;;;;;5.07;3.40;;;;;;;-146.82;100.00;71671.09;5017138;28;20116;-83
2024/01/14 04:47:21;;;;;;;6.57;3.42;;;;;;;-146.82;100.00;71671.09;5017385;28;20029;-83
2024/01/14 04:49:47;;;;;;;4.93;3.08;;;;;;;-146.82;100.00;71671.09;5017391;28;20080;-81
2024/01/14 04:52:12;;;;;;;5.78;3.05;;;;;;;-146.82;100.00;71671.09;5017094;28;20060;-83
2024/01/14 04:54:37;;;;;;;5.28;3.03;;;;;;;-146.82;100.00;71671.09;5017347;28;20030;-83
2024/01/14 04:57:03;;;;;;;4.63;3.35;;;;;;;-146.82;100.00;71671.09;5018582;28;20030;-81
2024/01/14 04:59:29;;;;;;;4.85;3.33;;;;;;;-146.82;100.00;71671.09;5036914;28;20036;-83
2024/01/14 05:01:54;;;;;;;4.55;3.20;;;;;;;-146.82;100.00;71671.09;5037192;28;20112;-83
2024/01/14 05:04:19;;;;;;;4.85;3.70;;;;;;;-146.82;100.00;71671.09;5036055;28;20421;-82
2024/01/14 05:06:45;;;;;;;5.18;4.03;;;;;;;-146.82;100.00;71671.09;5035165;28;20064;-85
2024/01/14 05:09:10;;;;;;;6.55;4.13;;;;;;;-146.82;100.00;71671.09;5035759;28;20017;-83
2024/01/14 05:11:36;;;;;;;5.32;3.78;;;;;;;-146.82;100.00;71671.09;5035971;28;20036;-83
2024/01/14 05:14:01;;;;;;;7.10;4.00;;;;;;;-146.82;100.00;71671.09;5035627;28;20496;-83
2024/01/14 05:16:27;;;;;;;6.50;3.60;;;;;;;-146.82;100.00;71671.09;5035933;28;20029;-81
2024/01/14 05:18:53;;;;;;;5.78;4.20;;;;;;;-146.82;100.00;71671.09;5036649;28;20179;-83
2024/01/14 05:21:18;;;;;;;7.38;4.47;;;;;;;-146.82;100.00;71671.09;5034962;28;20025;-82
2024/01/14 05:23:44;;;;;;;11.00;4.10;;;;;;;-146.82;100.00;71671.09;5035006;28;20071;-82
2024/01/14 05:26:09;;;;;;;6.65;4.57;;;;;;;-146.82;100.00;71671.09;5035203;28;20486;-83
2024/01/14 05:28:35;;;;;;;6.15;4.55;;;;;;;-146.82;100.00;71671.09;5035332;28;20029;-82
2024/01/14 05:31:00;;;;;;;6.97;4.07;;;;;;;-146.82;100.00;71671.09;5035341;28;20021;-82
2024/01/14 05:33:26;;;;;;;6.75;3.97;;;;;;;-146.82;100.00;71671.09;5035091;28;20531;-82
2024/01/14 05:35:51;;;;;;;7.63;5.03;;;;;;;-146.82;100.00;71671.09;5034952;28;20021;-83
2024/01/14 05:38:17;;;;;;;6.25;4.28;;;;;;;-146.82;100.00;71671.09;5036398;28;20049;-82
2024/01/14 05:40:42;;;;;;;7.45;4.70;;;;;;;-146.82;100.00;71671.09;5035913;28;20028;-81
2024/01/14 05:43:08;;;;;;;6.90;4.43;;;;;;;-146.82;100.00;71671.09;5035802;28;20075;-82
2024/01/14 05:45:33;;;;;;;5.82;4.07;;;;;;;-146.82;100.00;71671.09;5037536;28;20075;-82
2024/01/14 05:47:58;;;;;;;5.90;3.90;;;;;;;-146.82;100.00;71671.09;5040235;28;20546;-81
2024/01/14 05:50:24;;;;;;;6.75;3.90;;;;;;;-146.82;100.00;71671.09;5036481;28;20025;-81
2024/01/14 05:52:49;;;;;;;6.75;4.25;;;;;;;-146.82;100.00;71671.09;5033780;28;20033;-81
2024/01/14 05:55:15;;;;;;;7.53;4.53;;;;;;;-146.82;100.00;71671.09;5035906;28;20028;-82
2024/01/14 05:57:40;;;;;;;7.43;4.35;;;;;;;-146.82;100.00;71671.09;5035249;28;20359;-82
2024/01/14 06:00:06;;;;;;;4.70;3.92;;;;;;;-146.82;100.00;71671.09;5033221;28;20373;-82
2024/01/14 06:02:32;;;;;;;6.00;4.13;;;;;;;-146.82;100.00;71671.09;5032600;28;20029;-82
2024/01/14 06:04:57;;;;;;;6.97;4.28;;;;;;;-146.82;100.00;71671.09;5034783;28;20029;-82
2024/01/14 06:07:23;;;;;;;9.05;5.07;;;;;;;-146.82;100.00;71671.09;5035241;28;20029;-85
2024/01/14 06:09:48;;;;;;;7.95;4.40;;;;;;;-146.82;100.00;71671.09;5035891;28;20029;-81
2024/01/14 06:12:15;;;;;;;7.63;3.85;;;;;;;-146.82;100.00;71671.09;5036162;28;20060;-83
2024/01/14 06:14:40;;;;;;;6.32;5.00;;;;;;;-146.82;100.00;71671.09;5036212;28;20037;-82
2024/01/14 06:17:05;;;;;;;6.85;4.88;;;;;;;-146.82;100.00;71671.09;5037914;28;20022;-82
2024/01/14 06:19:31;;;;;;;7.53;4.30;;;;;;;-146.82;100.00;71671.09;5038042;28;20022;-82
2024/01/14 06:21:56;;;;;;;5.93;4.15;;;;;;;-146.82;100.00;71671.09;5039249;28;20459;-84
2024/01/14 06:24:21;;;;;;;9.52;4.40;;;;;;;-146.82;100.00;71671.09;5035361;28;20034;-82
2024/01/14 06:26:47;;;;;;;7.03;4.55;;;;;;;-146.82;100.00;71671.09;5034550;28;20059;-83
2024/01/14 06:29:12;;;;;;;8.45;4.75;;;;;;;-146.82;100.00;71671.09;5033961;28;20390;-82
2024/01/14 06:31:38;;;;;;;6.53;4.70;;;;;;;-146.82;100.00;71671.09;5034086;28;20030;-82
2024/01/14 06:34:06;;;;;;;7.43;5.15;;;;;;;-146.82;100.00;71671.09;5033904;28;20166;-82
2024/01/14 06:36:31;;;;;;;7.68;5.22;;;;;;;-146.82;100.00;71671.09;5033644;28;20387;-82
2024/01/14 06:38:57;;;;;;;6.82;5.13;;;;;;;-146.82;100.00;71671.09;5033853;28;20024;-81
2024/01/14 06:41:25;;;;;;;8.70;5.13;;;;;;;-146.82;100.00;71671.09;5033644;28;20029;-81
2024/01/14 06:43:51;;;;;;;7.63;5.35;;;;;;;-146.82;100.00;71671.09;5033754;28;20053;-81
2024/01/14 06:46:16;;;;;;;6.95;4.78;;;;;;;-146.82;100.00;71671.09;5034038;28;20375;-81
2024/01/14 06:48:42;;;;;;;6.63;4.78;;;;;;;-146.82;100.00;71671.09;5034320;28;20106;-81
2024/01/14 06:51:08;;;;;;;8.13;5.13;;;;;;;-146.82;100.00;71671.09;5034156;28;20025;-82
2024/01/14 06:53:33;;;;;;;7.07;4.22;;;;;;;-146.82;100.00;71671.09;5033991;28;20082;-82
2024/01/14 06:56:00;;;;;;;6.28;4.03;;;;;;;-146.82;100.00;71671.09;5033540;28;20029;-81
2024/01/14 06:58:25;;;;;;;5.82;3.40;;;;;;;-146.82;100.00;71671.09;5032287;28;20082;-84
2024/01/14 07:00:51;;;;;;;4.10;3.55;;;;;;;-146.82;100.00;71671.09;5033545;28;20025;-81
2024/01/14 07:03:16;;;;;;;7.68;4.10;;;;;;;-146.82;100.00;71671.09;5033668;28;20431;-81
2024/01/14 07:05:41;;;;;;;4.10;3.45;;;;;;;-146.82;100.00;71671.09;5037194;28;20021;-81
2024/01/14 07:08:07;;;;;;;6.07;4.15;;;;;;;-146.82;100.00;71671.09;5037622;28;20056;-86
2024/01/14 07:10:33;;;;;;;6.32;4.15;;;;;;;-146.82;100.00;71671.09;5038206;28;20025;-84
2024/01/14 07:12:58;;;;;;;6.10;4.40;;;;;;;-146.82;100.00;71671.09;5038078;28;20094;-84
2024/01/14 07:15:24;;;;;;;5.88;3.92;;;;;;;-146.82;100.00;71671.09;5036968;28;20037;-81
2024/01/14 07:17:50;;;;;;;7.82;4.28;;;;;;;-146.82;100.00;71671.09;5036885;28;20360;-81
2024/01/14 07:20:15;;;;;;;5.75;3.53;;;;;;;-146.82;100.00;71671.09;5035815;28;20033;-80
2024/01/14 07:22:41;;;;;;;4.22;3.58;;;;;;;-146.82;100.00;71671.09;5037575;28;20104;-81
2024/01/14 07:25:08;;;;;;;5.45;3.90;;;;;;;-146.82;100.00;71671.09;5037520;28;20029;-79
2024/01/14 07:27:34;;;;;;;6.10;3.97;;;;;;;-146.82;100.00;71671.09;5038605;28;20045;-81
2024/01/14 07:29:59;;;;;;;5.35;4.03;;;;;;;-146.82;100.00;71671.09;5038227;28;20036;-80
2024/01/14 07:32:24;;;;;;;7.88;4.20;;;;;;;-146.82;100.00;71671.09;5039954;28;20063;-80
2024/01/14 07:34:50;;;;;;;5.68;3.90;;;;;;;-146.82;100.00;71671.09;5038502;28;20029;-82
2024/01/14 07:37:15;;;;;;;6.20;4.18;;;;;;;-146.82;100.00;71671.09;5036395;28;20387;-80
2024/01/14 07:39:40;;;;;;;5.47;3.67;;;;;;;-146.82;100.00;71671.09;5022130;28;20025;-80
2024/01/14 07:42:06;;;;;;;4.40;3.60;;;;;;;-146.82;100.00;71671.09;5018297;28;20406;-81
2024/01/14 07:44:31;;;;;;;6.18;4.20;;;;;;;-146.82;100.00;71671.09;5018972;28;20021;-81
2024/01/14 07:46:57;;;;;;;5.88;4.32;;;;;;;-146.82;100.00;71671.09;5018455;28;20104;-80
2024/01/14 07:49:22;;;;;;;5.30;4.38;;;;;;;-146.82;100.00;71671.09;5019061;28;20034;-80
2024/01/14 07:51:48;;;;;;;6.00;4.35;;;;;;;-146.82;100.00;71671.09;5020083;28;20021;-83
2024/01/14 07:54:13;;;;;;;6.97;4.50;;;;;;;-146.82;100.00;71671.09;5026852;28;20121;-89
2024/01/14 07:56:39;;;;;;;6.43;4.45;;;;;;;-146.82;100.00;71671.09;5018067;28;20121;-79
2024/01/14 07:59:04;;;;;;;8.95;4.95;;;;;;;-146.82;100.00;71671.09;5016341;28;20471;-78
2024/01/14 08:01:30;;;;;;;7.40;4.40;;;;;;;-146.82;100.00;71671.09;5016051;28;20033;-78
2024/01/14 08:03:55;;;;;;;6.20;4.35;;;;;;;-146.82;100.00;71671.09;5016027;28;20030;-78
2024/01/14 08:06:24;;;;;;;7.30;4.95;;;;;;;-146.82;100.00;71671.09;5016075;28;20460;-79
2024/01/14 08:08:50;;;;;;;5.95;4.88;;;;;;;-146.82;100.00;71671.09;5015909;28;20030;-78
2024/01/14 08:11:16;;;;;;;7.63;4.75;;;;;;;-146.82;100.00;71671.09;5015906;28;20041;-77
2024/01/14 08:13:42;;;;;;;6.88;4.63;;;;;;;-146.82;100.00;71671.09;5015848;28;20430;-78
2024/01/14 08:16:07;;;;;;;5.88;4.13;;;;;;;-146.82;100.00;71671.09;5015336;28;20026;-77
2024/01/14 08:18:33;;;;;;;7.05;4.50;;;;;;;-146.82;100.00;71671.09;5015751;28;20104;-76
2024/01/14 08:20:59;;;;;;;7.05;4.38;;;;;;;-146.82;100.00;71671.09;5015994;28;20018;-78
2024/01/14 08:23:25;;;;;;;6.43;4.63;;;;;;;-146.82;100.00;71671.09;5015515;28;20443;-79
2024/01/14 08:25:50;;;;;;;7.85;4.03;;;;;;;-146.82;100.00;71671.09;5015996;28;20026;-78
2024/01/14 08:28:15;;;;;;;7.47;4.25;;;;;;;-146.82;100.00;71671.09;5015875;28;20029;-80
2024/01/14 08:30:41;;;;;;;7.10;3.65;;;;;;;-146.82;100.00;71671.09;5015919;28;20026;-79
2024/01/14 08:33:06;;;;;;;9.68;3.83;;;;;;;-146.82;100.00;71671.09;5015842;28;20037;-80
2024/01/14 08:35:32;;;;;;;5.72;3.83;;;;;;;-146.82;100.00;71671.09;5015937;28;20090;-78
2024/01/14 08:37:57;;;;;;;6.28;3.90;;;;;;;-146.82;100.00;71671.09;5016417;28;20049;-77
2024/01/14 08:40:23;;;;;;;5.20;3.65;;;;;;;-146.82;100.00;71671.09;5027224;28;20088;-79
2024/01/14 08:42:48;;;;;;;7.70;4.03;;;;;;;-146.82;100.00;71671.09;5034073;28;20470;-80
2024/01/14 08:45:16;;;;;;;7.10;3.55;;;;;;;-146.82;100.00;71671.09;5035085;28;20029;-78
2024/01/14 08:47:41;;;;;;;6.28;3.42;;;;;;;-146.82;100.00;71671.09;5033330;28;20074;-79
2024/01/14 08:50:09;;;;;;;7.75;3.92;;;;;;;-146.82;100.00;71671.09;5035280;28;20472;-78
2024/01/14 08:52:35;;;;;;;7.90;4.45;;;;;;;-146.82;100.00;71671.09;5033607;28;20390;-78
2024/01/14 08:55:01;;;;;;;4.72;3.40;;;;;;;-146.82;100.00;71671.09;5034661;28;20155;-82
2024/01/14 08:57:26;;;;;;;8.35;4.10;;;;;;;-146.82;100.00;71671.09;5035203;28;20017;-86
2024/01/14 08:59:51;;;;;;;8.00;4.07;;;;;;;-146.82;100.00;71671.09;5033971;28;20496;-82
2024/01/14 09:02:17;;;;;;;7.05;4.25;;;;;;;-146.82;100.00;71671.09;5034797;28;20040;-83
2024/01/14 09:04:42;;;;;;;9.10;4.47;;;;;;;-146.82;100.00;71671.09;5035016;28;20101;-83
2024/01/14 09:07:08;;;;;;;6.20;3.45;;;;;;;-146.82;100.00;71671.09;5033498;28;20020;-82
2024/01/14 09:09:33;;;;;;;9.43;5.05;;;;;;;-146.82;100.00;71671.09;5034484;28;20378;-81
2024/01/14 09:11:59;;;;;;;10.80;4.68;;;;;;;-146.82;100.00;71671.09;5034511;28;20462;-80
2024/01/14 09:14:24;;;;;;;7.22;4.53;;;;;;;-146.82;100.00;71671.09;5034939;28;20112;-81
2024/01/14 09:16:49;;;;;;;6.22;4.38;;;;;;;-146.82;100.00;71671.09;5034544;28;20471;-84
2024/01/14 09:19:15;;;;;;;7.47;4.65;;;;;;;-146.82;100.00;71671.09;5034436;28;20029;-85
2024/01/14 09:21:40;;;;;;;7.00;4.38;;;;;;;-146.82;100.00;71671.09;5035212;28;20053;-84
2024/01/14 09:24:06;;;;;;;7.28;4.47;;;;;;;-146.82;100.00;71671.09;5036179;28;20116;-85
2024/01/14 09:26:32;;;;;;;8.00;4.72;;;;;;;-146.82;100.00;71671.09;5036611;28;20151;-86
2024/01/14 09:28:57;;;;;;;7.43;4.72;;;;;;;-146.82;100.00;71671.09;5036577;28;20049;-85
2024/01/14 09:31:22;;;;;;;8.27;5.00;;;;;;;-146.82;100.00;71671.09;5036385;28;20477;-85
2024/01/14 09:33:48;;;;;;;7.63;4.80;;;;;;;-146.82;100.00;71671.09;5036239;28;20021;-83
2024/01/14 09:36:13;;;;;;;7.30;4.45;;;;;;;-146.82;100.00;71671.09;5035360;28;20057;-83
2024/01/14 09:38:40;;;;;;;9.00;5.10;;;;;;;-146.82;100.00;71671.09;5035375;28;20036;-82
2024/01/14 09:41:18;;;;;;;10.20;4.65;;;;;;;-146.82;100.00;71671.09;5034735;28;20021;-85
2024/01/14 09:43:49;;;;;;;8.57;5.15;;;;;;;-146.82;100.00;71671.09;5033212;28;20021;-85
2024/01/14 09:46:15;;;;;;;9.15;4.88;;;;;;;-146.82;100.00;71671.09;5034475;28;20032;-83
2024/01/14 09:48:40;;;;;;;9.35;5.05;;;;;;;-146.82;100.00;71671.09;5034550;28;20053;-83
2024/01/14 09:51:06;;;;;;;8.60;4.65;;;;;;;-146.82;100.00;71671.09;5035704;28;20025;-84
2024/01/14 09:53:32;;;;;;;10.10;5.18;;;;;;;-146.82;100.00;71671.09;5032974;28;20027;-84
2024/01/14 09:55:58;;;;;;;9.40;5.35;;;;;;;-146.82;100.00;71671.09;5034129;28;20033;-81
2024/01/14 09:58:24;;;;;;;9.15;5.78;;;;;;;-146.82;100.00;71671.09;5034142;28;20033;-82
2024/01/14 10:00:50;;;;;;;8.15;5.07;;;;;;;-146.82;100.00;71671.09;5034308;28;20022;-85
2024/01/14 10:03:15;;;;;;;8.40;5.32;;;;;;;-146.82;100.00;71671.09;5033292;28;20026;-86
2024/01/14 10:05:42;;;;;;;9.27;5.28;;;;;;;-146.82;100.00;71671.09;5032875;28;20031;-89
2024/01/14 10:08:08;;;;;;;8.85;5.68;;;;;;;-146.82;100.00;71671.09;5035145;28;20021;-83
2024/01/14 10:10:34;;;;;;;8.23;5.25;;;;;;;-146.82;100.00;71671.09;5034149;28;20100;-82
2024/01/14 10:12:59;;;;;;;11.50;5.55;;;;;;;-146.82;100.00;71671.09;5035148;28;20061;-83
2024/01/14 10:15:26;;;;;;;7.70;5.15;;;;;;;-146.82;100.00;71671.09;5035669;28;20029;-85
2024/01/14 10:17:51;;;;;;;9.63;5.43;;;;;;;-146.82;100.00;71671.09;5036959;28;20348;-82
2024/01/14 10:20:20;;;;;;;6.07;4.80;;;;;;;-146.82;100.00;71671.09;5036819;28;20467;-82
2024/01/14 10:22:45;;;;;;;7.22;5.07;;;;;;;-146.82;100.00;71671.09;5036803;28;20108;-82
2024/01/14 10:25:11;;;;;;;9.45;6.03;;;;;;;-146.82;100.00;71671.09;5035619;28;20057;-83
2024/01/14 10:27:37;;;;;;;6.00;4.65;;;;;;;-146.82;100.00;71671.09;5035415;28;20071;-82
2024/01/14 10:30:02;;;;;;;8.68;5.13;;;;;;;-146.82;100.00;71671.09;5034953;28;20492;-83
2024/01/14 10:32:31;;;;;;;7.22;4.88;;;;;;;-146.82;100.00;71671.09;5045733;28;20030;-84
2024/01/14 10:34:57;;;;;;;9.00;5.22;;;;;;;-146.82;100.00;71671.09;5049556;28;20075;-84
2024/01/14 10:37:26;;;;;;;6.32;4.80;;;;;;;-146.82;100.00;71671.09;5046408;28;20072;-82
2024/01/14 10:39:53;;;;;;;8.30;4.63;;;;;;;-146.82;100.00;71671.09;5042742;28;20025;-83
2024/01/14 10:42:19;;;;;;;6.25;4.75;;;;;;;-146.82;100.00;71671.09;5043772;28;20033;-77
2024/01/14 10:44:44;;;;;;;7.68;4.50;;;;;;;-146.82;100.00;71671.09;5044780;28;20079;-82
2024/01/14 10:47:10;;;;;;;8.13;5.07;;;;;;;-146.82;100.00;71671.09;5046831;28;20017;-83
2024/01/14 10:49:37;;;;;;;6.57;4.28;;;;;;;-146.82;100.00;71671.09;5040636;28;20049;-86
2024/01/14 10:52:08;;;;;;;7.03;4.50;;;;;;;-146.82;100.00;71671.09;5039117;28;20025;-82
2024/01/14 10:54:41;;;;;;;4.25;3.75;;;;;;;-146.82;100.00;71671.09;5021640;28;20508;-89
2024/01/14 10:57:35;;;;;;;8.48;4.78;;;;;;;-146.82;100.00;71671.09;5040137;28;20451;-87
2024/01/14 11:00:08;;;;;;;6.25;4.25;;;;;;;-146.82;100.00;71671.09;5042097;28;20093;-89